Terminal Aerodrome Forecast
Issued by NWS

Home | Current Version | Previous Version | Text Only | Print | Product List | Glossary On
Versions: 1 2 3 4 5 6 7 8 9 10 11 12 13 14 15 16 17 18 19 20 21 22 23 24 25 26
000
FTUS44 KLZK 182300
TAFBPK
TAF
KBPK 182337Z 1900/1924 06004KT 4SM BR OVC007
     FM190200 07003KT 6SM BR SCT007 OVC018
     FM190500 09003KT 4SM BR SCT012 BKN020
     FM191000 10003KT 1SM BR OVC007
     FM191500 13005KT 5SM BR SCT007 BKN020
     FM192000 13006KT P6SM BKN025=

USA.gov is the U.S. government's official web portal to all federal, state and local government web resources and services.